Time;durP1;ratioP1;P1;durP2;ratioP2;P2;SDS_P1;SDS_P2;PMS_P1;PMS_P2;Temp;Humidity;BMP_temperature;BMP_pressure;BME280_temperature;BME280_humidity;BME280_pressure;Samples;Min_cycle;Max_cycle;Signal;HPM_P1;HPM_P2
2022/12/09 00:01:11;;;;;;;89.50;42.80;;;;;;;3.72;100.00;99549.09;660797;1308;138593;-76
2022/12/09 00:16:15;;;;;;;48.30;23.30;;;;;;;3.80;100.00;99552.85;660820;1312;138843;-75
2022/12/09 00:31:24;;;;;;;102.70;47.40;;;;;;;3.78;100.00;99565.79;660810;1311;138482;-75
2022/12/09 00:46:28;;;;;;;119.00;47.10;;;;;;;3.84;100.00;99582.84;660976;1306;138247;-75
2022/12/09 01:01:31;;;;;;;62.60;26.60;;;;;;;3.95;100.00;99591.92;660715;1311;139321;-75
2022/12/09 01:16:35;;;;;;;184.40;88.00;;;;;;;4.00;100.00;99597.95;660848;1298;138670;-75
2022/12/09 01:31:38;;;;;;;145.40;65.20;;;;;;;3.95;100.00;99600.02;660642;1297;138297;-75
2022/12/09 01:46:43;;;;;;;73.10;30.20;;;;;;;3.90;100.00;99592.61;660830;1312;138037;-75
2022/12/09 02:01:51;;;;;;;231.60;83.90;;;;;;;3.94;100.00;99598.52;660728;1312;139203;-75
2022/12/09 02:17:19;;;;;;;72.00;31.80;;;;;;;4.13;100.00;99604.96;660780;1310;139069;-76
2022/12/09 02:32:25;;;;;;;71.30;30.40;;;;;;;4.15;100.00;99599.48;660660;1312;137901;-75
2022/12/09 02:47:31;;;;;;;89.80;35.70;;;;;;;3.94;100.00;99611.00;660864;1312;138086;-75
2022/12/09 03:02:40;;;;;;;94.80;33.20;;;;;;;4.08;100.00;99609.52;661007;1313;138241;-75
2022/12/09 03:17:44;;;;;;;64.40;28.30;;;;;;;4.19;100.00;99618.61;660689;1304;138483;-75
2022/12/09 03:32:50;;;;;;;68.90;27.80;;;;;;;4.08;100.00;99621.63;661022;1312;138542;-75
2022/12/09 03:47:53;;;;;;;73.40;27.30;;;;;;;4.03;100.00;99621.95;660953;1304;137873;-75
2022/12/09 04:02:58;;;;;;;74.50;28.00;;;;;;;4.09;100.00;99620.70;660943;1312;138874;-75
2022/12/09 04:18:03;;;;;;;81.20;31.80;;;;;;;4.23;100.00;99621.45;661123;1311;22079;-76
2022/12/09 04:33:07;;;;;;;71.20;28.10;;;;;;;4.43;100.00;99625.19;661198;1313;22286;-75
2022/12/09 04:48:10;;;;;;;77.30;27.70;;;;;;;4.31;100.00;99632.64;661240;1312;22163;-75
2022/12/09 05:03:13;;;;;;;69.90;27.20;;;;;;;4.30;100.00;99633.73;661090;1310;22281;-75
2022/12/09 05:18:17;;;;;;;73.40;30.50;;;;;;;4.34;100.00;99639.66;660627;1312;138263;-76
2022/12/09 05:33:21;;;;;;;72.70;26.60;;;;;;;4.33;100.00;99645.44;660972;1312;137974;-75
2022/12/09 05:48:24;;;;;;;115.50;44.70;;;;;;;4.19;100.00;99643.02;661113;1312;138007;-75
2022/12/09 06:03:28;;;;;;;80.30;30.50;;;;;;;4.26;100.00;99645.96;661060;1305;138357;-76
2022/12/09 06:18:33;;;;;;;97.00;34.50;;;;;;;4.33;100.00;99650.65;660912;1308;138164;-77
2022/12/09 06:33:36;;;;;;;126.30;45.00;;;;;;;4.36;100.00;99659.80;660932;1312;137924;-76
2022/12/09 06:48:57;;;;;;;157.40;61.70;;;;;;;4.30;100.00;99676.98;661006;1313;137867;-76
2022/12/09 07:04:02;;;;;;;117.80;47.90;;;;;;;4.34;100.00;99674.10;661244;1312;138881;-76
2022/12/09 07:19:06;;;;;;;88.10;35.10;;;;;;;4.11;100.00;99670.20;661225;1312;138572;-77
2022/12/09 07:34:10;;;;;;;133.20;48.40;;;;;;;3.95;100.00;99671.63;660883;1308;138578;-77
2022/12/09 07:49:14;;;;;;;93.40;34.90;;;;;;;3.94;100.00;99686.45;661053;1310;138053;-77
2022/12/09 08:04:18;;;;;;;109.30;43.00;;;;;;;4.05;100.00;99694.67;661080;1312;138525;-86
2022/12/09 08:19:22;;;;;;;106.00;39.60;;;;;;;4.27;100.00;99699.34;660760;1313;138699;-85
2022/12/09 08:34:25;;;;;;;69.40;29.90;;;;;;;4.33;100.00;99720.79;660619;1307;138079;-86
2022/12/09 08:49:30;;;;;;;539.20;255.60;;;;;;;4.23;100.00;99725.64;660801;1311;137837;-85
2022/12/09 09:04:34;;;;;;;157.10;63.40;;;;;;;4.41;100.00;99728.84;660792;1312;138921;-86
2022/12/09 09:19:38;;;;;;;170.20;57.60;;;;;;;4.53;100.00;99728.89;660933;1308;138682;-86
2022/12/09 09:34:43;;;;;;;312.70;122.70;;;;;;;4.41;100.00;99715.83;660639;1313;138013;-86
2022/12/09 09:50:02;;;;;;;205.70;72.30;;;;;;;4.52;100.00;99713.04;660818;1313;138267;-85
2022/12/09 10:05:19;;;;;;;117.80;47.00;;;;;;;4.69;100.00;99706.10;660927;1313;138640;-84
2022/12/09 10:20:26;;;;;;;204.60;75.00;;;;;;;4.96;100.00;99701.90;660942;1311;138647;-85
2022/12/09 10:35:31;;;;;;;105.90;47.90;;;;;;;5.24;100.00;99705.89;660875;1312;137888;-86
2022/12/09 10:50:35;;;;;;;196.90;72.00;;;;;;;5.41;99.72;99712.44;661084;1304;138173;-85
2022/12/09 11:05:41;;;;;;;146.90;51.90;;;;;;;5.54;99.81;99716.48;661003;1312;138158;-85
2022/12/09 11:20:57;;;;;;;103.30;44.40;;;;;;;5.64;99.16;99726.61;660609;1305;138477;-84
2022/12/09 11:36:08;;;;;;;188.20;60.20;;;;;;;5.53;97.75;99731.48;660755;1312;137974;-85
2022/12/09 11:51:36;;;;;;;85.40;35.10;;;;;;;5.36;97.80;99736.00;660856;1313;137914;-84
2022/12/09 12:06:50;;;;;;;103.80;45.70;;;;;;;5.40;98.14;99726.17;660716;1305;138250;-85
2022/12/09 12:22:12;;;;;;;123.40;51.50;;;;;;;5.53;97.64;99727.08;660697;1312;138392;-85
2022/12/09 12:37:16;;;;;;;117.70;50.00;;;;;;;5.47;96.31;99725.17;660973;1312;137725;-85
2022/12/09 12:52:31;;;;;;;158.20;60.00;;;;;;;5.42;97.37;99710.80;660876;1305;137884;-85
2022/12/09 13:08:03;;;;;;;126.90;52.20;;;;;;;5.59;96.82;99712.23;660967;1307;138953;-84
2022/12/09 13:23:46;;;;;;;107.90;52.10;;;;;;;5.73;95.25;99719.18;660715;1311;138787;-84
2022/12/09 13:38:50;;;;;;;204.20;85.00;;;;;;;5.60;95.95;99721.89;662545;1305;138233;-83
2022/12/09 13:53:56;;;;;;;107.90;47.10;;;;;;;5.35;95.32;99732.82;660758;1312;137850;-85
2022/12/09 14:09:14;;;;;;;380.20;106.90;;;;;;;4.95;94.79;99725.18;661015;1311;138216;-85
2022/12/09 14:24:20;;;;;;;486.40;163.60;;;;;;;4.25;95.61;99726.85;660686;1311;138523;-84
2022/12/09 14:39:32;;;;;;;294.50;106.50;;;;;;;3.76;95.32;99723.00;661137;1312;138354;-83
2022/12/09 14:54:40;;;;;;;251.90;98.20;;;;;;;3.40;95.22;99713.14;660770;1312;138203;-84
2022/12/09 15:10:02;;;;;;;232.70;88.70;;;;;;;3.05;95.93;99712.48;660479;1312;138674;-84
2022/12/09 15:25:16;;;;;;;322.80;123.00;;;;;;;2.90;95.10;99711.43;660869;1302;138639;-84
2022/12/09 15:40:21;;;;;;;366.10;139.30;;;;;;;2.61;95.05;99708.77;660574;1312;138959;-83
2022/12/09 15:55:38;;;;;;;549.90;237.90;;;;;;;2.43;95.13;99713.31;660776;1311;138700;-83
2022/12/09 16:10:50;;;;;;;654.30;297.20;;;;;;;2.52;95.35;99705.52;660809;1312;138749;-83
2022/12/09 16:26:01;;;;;;;650.20;298.80;;;;;;;2.62;95.03;99706.11;660790;1312;138777;-83
2022/12/09 16:41:10;;;;;;;576.40;251.20;;;;;;;2.73;95.27;99714.93;660679;1311;138749;-84
2022/12/09 16:56:19;;;;;;;186.50;80.30;;;;;;;2.81;95.51;99713.49;660737;1305;138137;-84
2022/12/09 17:11:23;;;;;;;267.30;107.30;;;;;;;2.86;97.25;99706.12;660676;1299;138087;-84
2022/12/09 17:26:26;;;;;;;171.20;77.20;;;;;;;2.88;97.63;99710.34;660768;1310;138843;-84
2022/12/09 17:41:30;;;;;;;114.50;48.40;;;;;;;2.75;97.98;99711.12;660555;1305;138558;-84
2022/12/09 17:56:33;;;;;;;210.60;79.80;;;;;;;2.73;97.59;99720.43;660850;1308;138501;-84
2022/12/09 18:11:37;;;;;;;625.70;212.00;;;;;;;2.59;97.65;99712.66;660888;1312;138796;-83
2022/12/09 18:26:41;;;;;;;215.90;76.30;;;;;;;2.35;97.20;99706.08;660778;1313;138662;-84
2022/12/09 18:41:44;;;;;;;156.50;65.80;;;;;;;2.23;97.31;99709.95;660657;1311;139152;-83
2022/12/09 18:56:49;;;;;;;220.00;80.20;;;;;;;2.26;97.43;99710.27;660908;1305;139102;-84
2022/12/09 19:11:53;;;;;;;650.10;250.40;;;;;;;2.32;96.88;99708.34;660622;1312;138561;-83
2022/12/09 19:26:56;;;;;;;477.00;171.90;;;;;;;1.98;96.79;99719.43;660741;1311;138660;-85
2022/12/09 19:42:00;;;;;;;265.20;97.30;;;;;;;1.76;96.58;99718.30;660690;1309;138699;-84
2022/12/09 19:57:04;;;;;;;162.80;55.50;;;;;;;1.50;96.65;99719.17;660845;1312;138614;-84
2022/12/09 20:12:07;;;;;;;142.30;56.10;;;;;;;1.50;96.09;99720.59;660716;1312;138762;-84
2022/12/09 20:27:11;;;;;;;159.60;62.10;;;;;;;1.70;96.92;99717.30;660492;1311;138601;-84
2022/12/09 20:42:14;;;;;;;202.30;71.50;;;;;;;1.67;96.69;99719.02;660703;1312;138400;-84
2022/12/09 20:57:18;;;;;;;283.40;103.10;;;;;;;1.38;95.88;99718.98;661099;1310;138586;-84
2022/12/09 21:12:21;;;;;;;284.00;98.60;;;;;;;1.10;94.89;99721.48;660729;1310;138652;-84
2022/12/09 21:27:25;;;;;;;369.40;114.40;;;;;;;0.92;94.58;99720.65;660660;1312;138606;-83
2022/12/09 21:42:28;;;;;;;185.10;66.60;;;;;;;0.81;95.07;99713.00;660718;1312;138650;-83
2022/12/09 21:57:33;;;;;;;130.40;48.30;;;;;;;0.82;95.37;99707.23;661010;1313;138536;-84
2022/12/09 22:12:36;;;;;;;310.10;111.60;;;;;;;1.16;96.32;99691.04;660999;1312;138602;-84
2022/12/09 22:27:40;;;;;;;235.70;80.50;;;;;;;1.30;96.26;99677.08;660571;1309;138943;-82
2022/12/09 22:42:44;;;;;;;94.10;40.20;;;;;;;1.48;96.73;99680.16;660786;1310;138554;-82
2022/12/09 22:57:47;;;;;;;94.20;37.20;;;;;;;1.70;97.88;99680.23;660796;1311;138445;-82
2022/12/09 23:12:50;;;;;;;109.60;44.00;;;;;;;1.80;97.74;99672.18;661115;1312;140708;-82
2022/12/09 23:27:54;;;;;;;118.90;46.30;;;;;;;1.88;97.73;99672.09;660965;1312;138650;-82
2022/12/09 23:42:57;;;;;;;110.90;45.80;;;;;;;1.94;97.50;99675.68;661123;1311;138653;-82
2022/12/09 23:58:00;;;;;;;149.10;50.30;;;;;;;2.03;97.10;99680.30;660942;1312;138899;-82
